Time;durP1;ratioP1;P1;durP2;ratioP2;P2;SDS_P1;SDS_P2;PMS_P1;PMS_P2;Temp;Humidity;BMP_temperature;BMP_pressure;BME280_temperature;BME280_humidity;BME280_pressure;Samples;Min_cycle;Max_cycle;Signal;HPM_P1;HPM_P2
2022/09/02 00:01:11;;;;;;;1.00;0.60;;;;;;;18.25;39.35;100187.63;5052196;28;20056;-61
2022/09/02 00:03:38;;;;;;;1.17;0.60;;;;;;;18.23;39.28;100189.56;5052211;28;20076;-63
2022/09/02 00:06:05;;;;;;;3.45;0.70;;;;;;;18.20;39.41;100184.47;5052227;28;20041;-62
2022/09/02 00:08:32;;;;;;;1.88;0.57;;;;;;;18.17;39.43;100187.41;5051799;28;20083;-61
2022/09/02 00:10:59;;;;;;;2.38;0.60;;;;;;;18.14;39.22;100185.00;5050097;28;20059;-62
2022/09/02 00:13:28;;;;;;;1.52;0.70;;;;;;;18.12;39.34;100192.28;5050671;28;20057;-63
2022/09/02 00:15:55;;;;;;;1.73;0.60;;;;;;;18.08;39.67;100187.19;5050807;28;20060;-62
2022/09/02 00:18:22;;;;;;;1.13;0.50;;;;;;;18.05;39.80;100187.41;5051732;28;20057;-62
2022/09/02 00:20:49;;;;;;;1.25;0.70;;;;;;;18.04;39.88;100184.88;5051841;28;20084;-61
2022/09/02 00:23:16;;;;;;;2.13;0.95;;;;;;;18.01;40.09;100183.31;5050811;28;20063;-61
2022/09/02 00:25:44;;;;;;;1.38;0.52;;;;;;;17.99;40.04;100179.94;5051724;28;20056;-62
2022/09/02 00:28:13;;;;;;;0.93;0.60;;;;;;;17.96;39.93;100188.16;5050362;28;20060;-62
2022/09/02 00:30:41;;;;;;;2.85;0.63;;;;;;;17.94;39.92;100184.78;5050269;28;20091;-62
2022/09/02 00:33:08;;;;;;;2.20;0.68;;;;;;;17.89;40.39;100182.50;5050821;28;20118;-61
2022/09/02 00:35:36;;;;;;;2.72;0.70;;;;;;;17.85;40.47;100181.06;5051336;28;20045;-64
2022/09/02 00:38:04;;;;;;;0.85;0.70;;;;;;;17.80;40.20;100186.75;5050606;28;20053;-62
2022/09/02 00:40:33;;;;;;;0.77;0.57;;;;;;;17.77;40.32;100173.69;5050047;28;20053;-62
2022/09/02 00:42:59;;;;;;;4.05;0.80;;;;;;;17.75;40.41;100169.47;5051288;28;20485;-62
2022/09/02 00:45:26;;;;;;;0.73;0.50;;;;;;;17.71;40.50;100176.84;5051346;28;20099;-62
2022/09/02 00:47:53;;;;;;;0.98;0.60;;;;;;;17.70;40.53;100175.16;5051193;28;20064;-64
2022/09/02 00:50:25;;;;;;;1.42;0.52;;;;;;;17.66;41.09;100171.03;5050927;28;20041;-61
2022/09/02 00:52:59;;;;;;;1.00;0.70;;;;;;;17.64;41.12;100173.81;5051275;28;20053;-63
2022/09/02 00:55:30;;;;;;;0.77;0.50;;;;;;;17.62;41.14;100170.44;5050100;28;20049;-61
2022/09/02 00:58:05;;;;;;;3.03;0.60;;;;;;;17.59;41.32;100170.69;5051127;28;20053;-62
2022/09/02 01:00:41;;;;;;;0.88;0.50;;;;;;;17.54;41.12;100171.03;5051035;28;20111;-62
2022/09/02 01:03:13;;;;;;;0.57;0.38;;;;;;;17.50;41.19;100166.97;5049934;28;20102;-61
2022/09/02 01:05:44;;;;;;;1.38;0.57;;;;;;;17.47;41.20;100167.19;5050057;28;20053;-62
2022/09/02 01:08:23;;;;;;;0.60;0.50;;;;;;;17.40;41.08;100156.19;5050683;28;20500;-61
2022/09/02 01:10:54;;;;;;;1.30;0.60;;;;;;;17.40;41.23;100160.66;5050779;28;20053;-63
2022/09/02 01:13:24;;;;;;;1.02;0.77;;;;;;;17.35;41.74;100157.53;5049735;28;20055;-61
2022/09/02 01:15:55;;;;;;;1.73;0.40;;;;;;;17.31;41.74;100157.75;5049842;28;20261;-62
2022/09/02 01:18:28;;;;;;;0.85;0.60;;;;;;;17.26;41.55;100162.59;5050957;28;20052;-62
2022/09/02 01:20:59;;;;;;;1.08;0.50;;;;;;;17.21;42.07;100161.28;5048937;28;20049;-62
2022/09/02 01:23:28;;;;;;;0.73;0.55;;;;;;;17.19;41.50;100161.38;5050762;28;20060;-64
2022/09/02 01:25:57;;;;;;;0.57;0.40;;;;;;;17.15;41.56;100158.13;5051177;28;20136;-61
2022/09/02 01:28:24;;;;;;;1.05;0.68;;;;;;;17.12;41.71;100157.53;5050412;28;20417;-61
2022/09/02 01:30:53;;;;;;;1.23;0.70;;;;;;;17.06;42.24;100159.72;5050516;28;20067;-61
2022/09/02 01:33:22;;;;;;;2.65;0.60;;;;;;;17.05;42.06;100151.84;5049314;28;20073;-62
2022/09/02 01:35:52;;;;;;;3.47;0.50;;;;;;;17.02;42.01;100152.06;5050509;28;20778;-62
2022/09/02 01:38:21;;;;;;;1.73;0.85;;;;;;;17.00;42.39;100149.50;5049167;28;20049;-61
2022/09/02 01:40:48;;;;;;;2.78;0.70;;;;;;;16.99;42.13;100149.63;5049521;28;20489;-63
2022/09/02 01:43:19;;;;;;;0.73;0.60;;;;;;;16.95;42.51;100151.69;5050359;28;20084;-62
2022/09/02 01:45:49;;;;;;;2.67;0.60;;;;;;;16.94;42.54;100139.38;5049347;28;20052;-65
2022/09/02 01:48:16;;;;;;;2.75;0.70;;;;;;;16.93;42.19;100145.63;5048911;28;20072;-60
2022/09/02 01:50:54;;;;;;;0.68;0.68;;;;;;;16.92;42.69;100141.28;5050608;28;20106;-61
2022/09/02 01:53:22;;;;;;;0.90;0.60;;;;;;;16.92;42.44;100138.63;5050262;28;20080;-62
2022/09/02 01:55:49;;;;;;;3.78;0.75;;;;;;;16.91;42.36;100140.44;5050468;28;20056;-62
2022/09/02 01:58:16;;;;;;;2.35;0.65;;;;;;;16.90;42.53;100140.56;5050234;28;20057;-62
2022/09/02 02:00:43;;;;;;;1.92;0.70;;;;;;;16.88;42.37;100138.03;5050223;28;20115;-63
2022/09/02 02:03:10;;;;;;;3.38;0.50;;;;;;;16.87;42.45;100135.47;5050411;28;20138;-61
2022/09/02 02:05:36;;;;;;;0.80;0.50;;;;;;;16.86;42.67;100141.78;5050467;28;20412;-62
2022/09/02 02:08:04;;;;;;;1.20;0.80;;;;;;;16.85;42.78;100137.41;5048863;28;20056;-67
2022/09/02 02:10:31;;;;;;;1.83;0.52;;;;;;;16.84;42.80;100127.72;5048836;28;20523;-63
2022/09/02 02:13:00;;;;;;;2.28;0.50;;;;;;;16.84;42.90;100127.72;5050095;28;20045;-62
2022/09/02 02:15:27;;;;;;;1.63;0.70;;;;;;;16.84;42.93;100130.38;5049092;28;20425;-62
2022/09/02 02:17:52;;;;;;;0.70;0.55;;;;;;;16.84;42.99;100130.38;5050578;28;20044;-61
2022/09/02 02:20:20;;;;;;;2.72;0.95;;;;;;;16.83;43.14;100128.69;5050113;28;20045;-64
2022/09/02 02:22:47;;;;;;;1.45;0.68;;;;;;;16.83;43.02;100126.03;5048889;28;20053;-61
2022/09/02 02:25:15;;;;;;;2.58;0.70;;;;;;;16.82;43.17;100121.69;5050167;28;20060;-62
2022/09/02 02:27:43;;;;;;;1.15;0.60;;;;;;;16.80;42.85;100117.34;5050020;28;20061;-62
2022/09/02 02:30:13;;;;;;;2.58;0.60;;;;;;;16.79;43.16;100122.78;5048671;28;20060;-61
2022/09/02 02:32:41;;;;;;;1.25;0.60;;;;;;;16.78;43.29;100119.28;5049850;28;20060;-61
2022/09/02 02:35:10;;;;;;;1.77;0.80;;;;;;;16.76;43.24;100118.56;5052695;28;20113;-64
2022/09/02 02:37:36;;;;;;;1.52;0.73;;;;;;;16.73;43.09;100121.44;5052601;28;20045;-61
2022/09/02 02:40:05;;;;;;;1.40;0.73;;;;;;;16.71;43.26;100111.91;5053444;28;20053;-61
2022/09/02 02:42:32;;;;;;;0.98;0.70;;;;;;;16.69;43.45;100112.00;5052423;28;20110;-62
2022/09/02 02:44:59;;;;;;;0.52;0.52;;;;;;;16.68;43.40;100110.31;5053817;28;20056;-61
2022/09/02 02:47:26;;;;;;;3.65;0.80;;;;;;;16.66;43.45;100109.59;5053763;28;20049;-63
2022/09/02 02:49:53;;;;;;;2.30;0.70;;;;;;;16.65;43.60;100107.91;5053305;28;20052;-62
2022/09/02 02:52:20;;;;;;;1.42;0.63;;;;;;;16.64;43.44;100108.88;5035924;28;20083;-61
2022/09/02 02:54:46;;;;;;;0.82;0.82;;;;;;;16.63;43.59;100104.53;5053452;28;20052;-62
2022/09/02 02:57:13;;;;;;;1.30;0.80;;;;;;;16.61;43.68;100109.97;5053352;28;20057;-63
2022/09/02 02:59:39;;;;;;;1.70;0.70;;;;;;;16.60;43.67;100102.94;5053205;28;20056;-61
2022/09/02 03:02:06;;;;;;;0.90;0.60;;;;;;;16.60;43.79;100110.91;5053586;28;20060;-62
2022/09/02 03:04:33;;;;;;;0.70;0.60;;;;;;;16.57;43.73;100102.31;5053271;28;20097;-62
2022/09/02 03:07:01;;;;;;;0.90;0.75;;;;;;;16.56;43.89;100112.09;5052077;28;20053;-62
2022/09/02 03:09:28;;;;;;;1.15;0.70;;;;;;;16.54;43.87;100111.38;5052948;28;20136;-64
2022/09/02 03:11:55;;;;;;;2.42;0.65;;;;;;;16.51;44.07;100107.16;5053101;28;20509;-62
2022/09/02 03:14:21;;;;;;;1.85;0.70;;;;;;;16.49;43.89;100108.25;5053249;28;20079;-63
2022/09/02 03:16:48;;;;;;;1.70;0.60;;;;;;;16.46;44.06;100100.50;5053446;28;20049;-60
2022/09/02 03:19:14;;;;;;;1.25;0.50;;;;;;;16.42;43.90;100108.69;5051570;28;20448;-62
2022/09/02 03:21:41;;;;;;;2.17;0.80;;;;;;;16.40;44.20;100107.13;5053020;28;20049;-62
2022/09/02 03:24:10;;;;;;;1.33;0.70;;;;;;;16.37;44.46;100102.06;5052878;28;20045;-61
2022/09/02 03:26:39;;;;;;;0.80;0.73;;;;;;;16.36;44.32;100103.00;5052825;28;20045;-64
2022/09/02 03:29:06;;;;;;;1.80;0.90;;;;;;;16.33;44.36;100106.72;5052663;28;20052;-61
2022/09/02 03:31:32;;;;;;;1.25;0.70;;;;;;;16.32;44.36;100101.53;5052804;28;20067;-62
2022/09/02 03:33:59;;;;;;;0.90;0.60;;;;;;;16.28;44.38;100099.13;5052787;28;20049;-62
2022/09/02 03:36:33;;;;;;;0.60;0.60;;;;;;;16.25;44.76;100104.66;5052745;28;20053;-62
2022/09/02 03:39:02;;;;;;;1.67;0.80;;;;;;;16.23;44.59;100103.91;5051122;28;20587;-62
2022/09/02 03:41:29;;;;;;;1.02;0.80;;;;;;;16.21;44.63;100102.34;5051046;28;20064;-61
2022/09/02 03:43:56;;;;;;;1.15;0.70;;;;;;;16.17;44.80;100099.09;5052228;28;20048;-62
2022/09/02 03:46:23;;;;;;;1.55;0.60;;;;;;;16.15;44.82;100091.22;5052555;28;20049;-60
2022/09/02 03:48:50;;;;;;;0.93;0.60;;;;;;;16.13;44.83;100095.81;5052390;28;20052;-61
2022/09/02 03:51:19;;;;;;;3.17;0.80;;;;;;;16.09;44.93;100089.03;5052708;28;20127;-62
2022/09/02 03:53:46;;;;;;;2.28;0.50;;;;;;;16.07;44.98;100087.47;5052634;28;20045;-61
2022/09/02 03:56:14;;;;;;;0.98;0.70;;;;;;;16.04;45.27;100087.69;5052218;28;20060;-61
2022/09/02 03:58:43;;;;;;;0.70;0.70;;;;;;;16.00;45.32;100085.25;5052269;28;20049;-61
2022/09/02 04:01:22;;;;;;;3.05;1.00;;;;;;;15.95;45.56;100089.22;5050750;28;20409;-62
2022/09/02 04:03:52;;;;;;;1.70;0.70;;;;;;;15.97;45.15;100084.66;5050981;28;20057;-62
2022/09/02 04:06:20;;;;;;;1.05;0.70;;;;;;;15.93;45.46;100076.03;5052222;28;20636;-61
2022/09/02 04:08:48;;;;;;;1.60;0.70;;;;;;;15.91;45.29;100077.94;5050703;28;20057;-64
2022/09/02 04:11:18;;;;;;;3.95;0.80;;;;;;;15.88;45.86;100075.53;5050562;28;20413;-62
2022/09/02 04:13:46;;;;;;;3.25;0.85;;;;;;;15.87;45.56;100076.47;5051162;28;20071;-62
2022/09/02 04:16:17;;;;;;;1.65;1.10;;;;;;;15.84;45.83;100074.91;5051765;28;20059;-62
2022/09/02 04:18:44;;;;;;;0.68;0.60;;;;;;;15.84;45.73;100074.06;5050598;28;20061;-61
2022/09/02 04:21:11;;;;;;;1.05;0.77;;;;;;;15.82;45.73;100073.34;5050572;28;20049;-61
2022/09/02 04:23:38;;;;;;;2.70;0.85;;;;;;;15.80;45.73;100069.94;5051835;28;20060;-62
2022/09/02 04:26:07;;;;;;;1.42;1.00;;;;;;;15.77;45.88;100069.22;5051741;28;20049;-61
2022/09/02 04:28:33;;;;;;;2.35;1.10;;;;;;;15.75;45.84;100060.50;5050023;28;20049;-62
2022/09/02 04:31:05;;;;;;;1.15;0.68;;;;;;;15.72;46.48;100063.41;5051446;28;20052;-62
2022/09/02 04:33:34;;;;;;;1.55;0.77;;;;;;;15.71;45.96;100061.72;5050560;28;20049;-61
2022/09/02 04:36:10;;;;;;;2.08;0.77;;;;;;;15.68;46.70;100061.94;5051494;28;20049;-62
2022/09/02 04:38:40;;;;;;;1.48;0.80;;;;;;;15.71;46.15;100063.50;5050319;28;20049;-61
2022/09/02 04:41:12;;;;;;;1.65;0.80;;;;;;;15.69;46.79;100057.44;5051460;28;20053;-61
2022/09/02 04:43:39;;;;;;;2.07;0.70;;;;;;;15.70;46.21;100060.00;5049713;28;20817;-62
2022/09/02 04:46:10;;;;;;;0.70;0.70;;;;;;;15.67;46.44;100057.59;5050635;28;20045;-64
2022/09/02 04:48:37;;;;;;;1.75;0.80;;;;;;;15.67;46.26;100062.91;5049734;28;20056;-62
2022/09/02 04:51:09;;;;;;;4.05;0.90;;;;;;;15.63;46.99;100064.09;5051110;28;20049;-61
2022/09/02 04:53:37;;;;;;;0.80;0.70;;;;;;;15.63;46.46;100064.91;5049998;28;20437;-63
2022/09/02 04:56:06;;;;;;;1.85;0.77;;;;;;;15.61;46.55;100066.00;5050465;28;20056;-61
2022/09/02 04:58:34;;;;;;;1.35;0.85;;;;;;;15.60;46.57;100064.31;5050903;28;20068;-61
2022/09/02 05:01:10;;;;;;;3.13;0.70;;;;;;;15.57;47.15;100067.16;5048907;28;20045;-62
2022/09/02 05:03:37;;;;;;;1.23;0.70;;;;;;;15.60;46.54;100070.47;5050373;28;20057;-61
2022/09/02 05:06:07;;;;;;;1.25;0.82;;;;;;;15.59;47.17;100070.56;5050618;28;20056;-62
2022/09/02 05:08:37;;;;;;;3.13;1.30;;;;;;;15.60;46.85;100069.59;5049165;28;20412;-61
2022/09/02 05:11:12;;;;;;;0.82;0.65;;;;;;;15.58;47.44;100063.56;5051175;28;20088;-61
2022/09/02 05:13:40;;;;;;;1.85;1.00;;;;;;;15.60;47.06;100065.16;5050865;28;20060;-62
2022/09/02 05:16:07;;;;;;;2.10;0.88;;;;;;;15.60;47.00;100065.16;5050838;28;20505;-62
2022/09/02 05:18:34;;;;;;;1.48;0.90;;;;;;;15.62;47.20;100067.69;5050477;28;20493;-63
2022/09/02 05:21:05;;;;;;;1.15;0.95;;;;;;;15.61;47.80;100066.84;5050141;28;20045;-61
2022/09/02 05:23:33;;;;;;;1.20;0.73;;;;;;;15.63;47.16;100067.56;5050481;28;20045;-62
2022/09/02 05:26:08;;;;;;;2.00;0.77;;;;;;;15.64;47.93;100063.13;5049779;28;20056;-61
2022/09/02 05:28:35;;;;;;;1.83;0.70;;;;;;;15.67;47.38;100062.91;5050491;28;20056;-62
2022/09/02 05:31:07;;;;;;;3.55;0.73;;;;;;;15.69;47.63;100065.41;5050612;28;20056;-61
2022/09/02 05:33:39;;;;;;;1.65;0.82;;;;;;;15.72;47.35;100066.06;5050581;28;20053;-62
2022/09/02 05:36:20;;;;;;;2.83;0.77;;;;;;;15.71;47.84;100061.72;5050583;28;20551;-61
2022/09/02 05:38:48;;;;;;;1.15;0.57;;;;;;;15.77;47.51;100063.91;5048980;28;20066;-63
2022/09/02 05:41:18;;;;;;;2.88;0.80;;;;;;;15.80;47.89;100068.13;5049274;28;20623;-62
2022/09/02 05:43:47;;;;;;;1.77;0.80;;;;;;;15.84;47.38;100055.47;5050411;28;20045;-62
2022/09/02 05:46:16;;;;;;;1.00;0.60;;;;;;;15.87;47.78;100065.88;5050654;28;20057;-60
2022/09/02 05:51:30;;;;;;;3.53;1.08;;;;;;;15.94;47.59;100063.59;5050538;28;20110;-61
2022/09/02 05:53:59;;;;;;;2.55;1.00;;;;;;;15.97;47.81;100066.06;5048941;28;20052;-62
2022/09/02 05:56:26;;;;;;;1.30;0.77;;;;;;;15.99;47.64;100065.00;5049852;28;20067;-62
2022/09/02 05:58:57;;;;;;;1.10;0.80;;;;;;;16.02;48.19;100064.75;5049102;28;20064;-61
2022/09/02 06:01:28;;;;;;;1.55;0.95;;;;;;;16.07;47.66;100060.91;5050404;28;20061;-61
2022/09/02 06:03:56;;;;;;;1.10;0.80;;;;;;;16.11;47.90;100065.03;5050259;28;20139;-62
2022/09/02 06:06:23;;;;;;;0.88;0.80;;;;;;;16.15;47.62;100066.50;5050317;28;20049;-63
2022/09/02 06:08:50;;;;;;;0.98;0.88;;;;;;;16.19;47.81;100065.31;5052854;28;20059;-61
2022/09/02 06:11:17;;;;;;;1.25;1.00;;;;;;;16.23;47.75;100061.44;5053206;28;20053;-62
2022/09/02 06:13:44;;;;;;;1.38;1.00;;;;;;;16.28;47.70;100059.28;5053208;28;20068;-61
2022/09/02 06:16:18;;;;;;;1.23;0.88;;;;;;;16.31;48.17;100063.50;5054141;28;20053;-61
2022/09/02 06:18:48;;;;;;;1.77;0.90;;;;;;;16.37;48.16;100062.22;5053943;28;20076;-62
2022/09/02 06:21:15;;;;;;;1.35;0.95;;;;;;;16.44;47.81;100062.59;5052646;28;20060;-62
2022/09/02 06:23:43;;;;;;;3.20;1.00;;;;;;;16.48;47.60;100048.91;5053765;28;20056;-63
2022/09/02 06:26:12;;;;;;;1.00;0.80;;;;;;;16.52;47.80;100053.03;5053894;28;20501;-61
2022/09/02 06:28:38;;;;;;;1.45;1.33;;;;;;;16.58;47.52;100054.38;5052910;28;20060;-63
2022/09/02 06:31:08;;;;;;;2.25;1.00;;;;;;;16.63;47.90;100051.38;5053926;28;20420;-62
2022/09/02 06:33:35;;;;;;;1.10;0.82;;;;;;;16.69;47.53;100050.88;5053798;28;20041;-62
2022/09/02 06:36:05;;;;;;;1.25;0.90;;;;;;;16.73;47.92;100047.00;5052889;28;20045;-61
2022/09/02 06:38:36;;;;;;;2.90;1.00;;;;;;;16.80;48.01;100058.88;5052057;28;20557;-61
2022/09/02 06:41:02;;;;;;;2.03;0.85;;;;;;;16.89;47.57;100059.09;5050920;28;20049;-61
2022/09/02 06:43:30;;;;;;;2.40;0.98;;;;;;;16.93;47.60;100057.88;5052111;28;20048;-62
2022/09/02 06:46:14;;;;;;;1.85;0.88;;;;;;;16.97;48.07;100061.97;5052022;28;20049;-62
2022/09/02 06:48:41;;;;;;;1.70;0.93;;;;;;;17.04;47.40;100052.59;5051990;28;20135;-63
2022/09/02 06:51:14;;;;;;;2.45;1.10;;;;;;;17.10;47.52;100056.59;5052317;28;20489;-61
2022/09/02 06:53:40;;;;;;;2.30;1.08;;;;;;;17.16;47.52;100057.91;5053688;28;20045;-61
2022/09/02 06:56:09;;;;;;;2.42;0.70;;;;;;;17.22;47.54;100051.22;5053287;28;20049;-63
2022/09/02 06:58:38;;;;;;;4.28;1.17;;;;;;;17.27;47.44;100054.38;5051940;28;20517;-61
2022/09/02 07:01:05;;;;;;;1.83;0.82;;;;;;;17.34;47.56;100058.22;5053044;28;20053;-62
2022/09/02 07:06:34;;;;;;;1.00;0.90;;;;;;;17.47;47.80;100049.25;4998939;28;20054;-61
2022/09/02 07:09:01;;;;;;;1.30;0.93;;;;;;;17.55;47.41;100052.13;5051944;28;20049;-61
2022/09/02 07:11:28;;;;;;;1.75;1.20;;;;;;;17.61;46.98;100053.44;5053000;28;20049;-61
2022/09/02 07:13:55;;;;;;;4.78;1.20;;;;;;;17.67;47.25;100055.59;5051942;28;20056;-61
2022/09/02 07:16:21;;;;;;;4.45;1.00;;;;;;;17.74;47.14;100056.78;5053147;28;20045;-61
2022/09/02 07:18:52;;;;;;;2.85;1.05;;;;;;;17.81;47.37;100059.78;5052150;28;20053;-62
2022/09/02 07:21:19;;;;;;;2.88;1.00;;;;;;;17.87;47.35;100053.94;5052557;28;20053;-62
2022/09/02 07:23:45;;;;;;;1.55;1.10;;;;;;;17.95;47.04;100058.66;5052949;28;20629;-62
2022/09/02 07:26:14;;;;;;;1.73;1.05;;;;;;;18.01;47.05;100055.44;5052764;28;20079;-61
2022/09/02 07:28:42;;;;;;;2.78;1.02;;;;;;;18.07;46.82;100056.75;5052554;28;20048;-62
2022/09/02 07:31:09;;;;;;;3.05;1.38;;;;;;;18.15;46.74;100053.47;5052650;28;20491;-62
2022/09/02 07:33:37;;;;;;;1.88;1.10;;;;;;;18.22;46.93;100049.31;5052654;28;20056;-62
2022/09/02 07:36:05;;;;;;;2.17;1.10;;;;;;;18.29;47.06;100053.16;5052746;28;20057;-61
2022/09/02 07:38:39;;;;;;;2.42;1.20;;;;;;;18.38;46.49;100048.84;5052515;28;20390;-62
2022/09/02 07:41:09;;;;;;;4.30;1.20;;;;;;;18.46;46.73;100053.53;5051588;28;20045;-61
2022/09/02 07:43:37;;;;;;;2.88;1.42;;;;;;;18.53;46.58;100052.03;5051549;28;20063;-61
2022/09/02 07:46:04;;;;;;;1.77;1.00;;;;;;;18.62;46.78;100051.22;5052626;28;20063;-61
2022/09/02 07:48:33;;;;;;;1.67;0.93;;;;;;;18.69;46.03;100048.88;5051159;28;20051;-61
2022/09/02 07:50:59;;;;;;;4.32;1.23;;;;;;;18.77;46.31;100050.91;5051210;28;20048;-63
2022/09/02 07:53:27;;;;;;;2.70;1.10;;;;;;;18.85;46.28;100045.75;5052387;28;20045;-63
2022/09/02 07:55:53;;;;;;;1.27;1.00;;;;;;;18.94;46.29;100048.56;5051280;28;20049;-61
2022/09/02 07:58:21;;;;;;;2.47;0.80;;;;;;;19.01;46.31;100045.22;5050965;28;20061;-62
2022/09/02 08:00:49;;;;;;;1.38;1.00;;;;;;;19.11;46.05;100044.44;5050993;28;20493;-62
2022/09/02 08:03:16;;;;;;;1.33;0.90;;;;;;;19.20;45.84;100040.09;5052142;28;20060;-62
2022/09/02 08:05:45;;;;;;;3.28;1.00;;;;;;;19.27;45.72;100039.44;5052326;28;20053;-64
2022/09/02 08:08:15;;;;;;;1.92;1.17;;;;;;;19.35;45.72;100040.53;5050724;28;20045;-61
2022/09/02 08:10:42;;;;;;;3.92;0.90;;;;;;;19.44;45.59;100038.88;5052105;28;20420;-61
2022/09/02 08:13:09;;;;;;;3.30;0.90;;;;;;;19.53;45.40;100040.72;5052011;28;20720;-61
2022/09/02 08:15:37;;;;;;;1.77;1.13;;;;;;;19.61;46.00;100034.69;5051888;28;20053;-62
2022/09/02 08:18:05;;;;;;;1.65;0.98;;;;;;;19.70;45.65;100041.84;5051768;28;20060;-66
2022/09/02 08:20:34;;;;;;;3.22;1.20;;;;;;;19.79;45.49;100033.00;5051711;28;20521;-63
2022/09/02 08:23:05;;;;;;;1.00;0.90;;;;;;;19.88;45.30;100036.66;5051904;28;20099;-61
2022/09/02 08:25:44;;;;;;;1.67;1.10;;;;;;;19.99;45.02;100040.19;5050944;28;20052;-62
2022/09/02 08:28:11;;;;;;;1.45;0.57;;;;;;;20.08;45.20;100030.47;5051706;28;20053;-61
2022/09/02 08:30:37;;;;;;;1.85;0.98;;;;;;;20.20;44.81;100036.50;5051524;28;20056;-61
2022/09/02 08:33:04;;;;;;;3.15;0.90;;;;;;;20.29;44.96;100036.47;5051701;28;20089;-63
2022/09/02 08:35:31;;;;;;;3.80;0.90;;;;;;;20.40;44.89;100034.63;5051782;28;20045;-61
2022/09/02 08:37:58;;;;;;;1.88;0.93;;;;;;;20.51;44.92;100039.81;5051807;28;20144;-62
2022/09/02 08:40:38;;;;;;;1.77;0.90;;;;;;;20.60;44.58;100030.06;5050177;28;20136;-63
2022/09/02 08:43:26;;;;;;;1.80;0.90;;;;;;;20.71;44.40;100031.72;5050258;28;20394;-61
2022/09/02 08:45:57;;;;;;;1.60;1.00;;;;;;;20.87;44.23;100022.19;5051575;28;20053;-62
2022/09/02 08:48:48;;;;;;;3.55;0.90;;;;;;;20.96;44.29;100018.66;5051087;28;20052;-61
2022/09/02 08:51:24;;;;;;;2.70;0.90;;;;;;;21.07;43.83;100018.47;5051659;28;20052;-62
2022/09/02 08:54:04;;;;;;;4.93;0.90;;;;;;;21.18;43.70;100014.75;5051592;28;20059;-62
2022/09/02 08:56:31;;;;;;;4.40;1.10;;;;;;;21.31;43.60;100016.22;5051357;28;20071;-61
2022/09/02 08:59:00;;;;;;;2.28;0.98;;;;;;;21.40;43.70;100015.31;5051034;28;20060;-63
2022/09/02 09:01:45;;;;;;;3.88;1.30;;;;;;;21.51;43.41;100013.38;5051201;28;20049;-61
2022/09/02 09:04:53;;;;;;;1.48;0.90;;;;;;;21.61;43.26;100012.31;5050988;28;20052;-63
2022/09/02 09:07:41;;;;;;;1.35;0.82;;;;;;;21.78;43.15;100015.16;5008697;28;20053;-61
2022/09/02 09:10:53;;;;;;;1.77;1.00;;;;;;;21.88;43.03;100004.38;5050192;28;20060;-63
2022/09/02 09:13:36;;;;;;;2.80;1.00;;;;;;;22.07;42.76;100010.53;5049746;28;20053;-63
2022/09/02 09:16:28;;;;;;;1.67;0.80;;;;;;;22.19;42.23;100003.91;5051002;28;20056;-63
2022/09/02 09:19:00;;;;;;;1.38;1.00;;;;;;;22.33;42.59;99998.97;5050658;28;20130;-63
2022/09/02 09:21:30;;;;;;;2.28;1.00;;;;;;;22.43;42.75;100002.34;5049434;28;20076;-61
2022/09/02 09:24:03;;;;;;;3.03;1.05;;;;;;;22.54;42.08;100003.91;5050742;28;20484;-62
2022/09/02 09:26:33;;;;;;;2.13;1.10;;;;;;;22.66;41.97;100007.22;5049646;28;20045;-63
2022/09/02 09:29:03;;;;;;;3.20;1.20;;;;;;;22.78;41.87;100005.09;5050368;28;20417;-62
2022/09/02 09:31:34;;;;;;;3.35;1.10;;;;;;;22.90;41.47;100005.63;5050946;28;20092;-62
2022/09/02 09:34:11;;;;;;;2.10;1.00;;;;;;;23.00;41.75;99990.25;5049517;28;20053;-62
2022/09/02 09:36:41;;;;;;;2.25;1.13;;;;;;;23.15;41.00;99986.91;5049349;28;20041;-62
2022/09/02 09:39:28;;;;;;;1.80;1.15;;;;;;;23.22;41.28;99981.72;5048998;28;20045;-62
2022/09/02 09:41:59;;;;;;;3.00;1.10;;;;;;;23.38;40.73;99978.25;5048961;28;20041;-62
2022/09/02 09:44:45;;;;;;;2.35;0.90;;;;;;;23.46;40.83;99974.72;5050569;28;20059;-62
2022/09/02 09:47:24;;;;;;;1.52;0.80;;;;;;;23.58;40.68;99978.75;5050745;28;20045;-62
2022/09/02 09:49:53;;;;;;;2.88;1.30;;;;;;;23.72;40.18;99969.19;5048832;28;20051;-61
2022/09/02 09:52:29;;;;;;;1.95;0.90;;;;;;;23.81;39.89;99964.66;5050602;28;20092;-64
2022/09/02 09:55:11;;;;;;;3.25;1.02;;;;;;;23.90;40.20;99971.69;5049202;28;20083;-62
2022/09/02 09:57:43;;;;;;;2.73;0.80;;;;;;;24.03;39.58;99978.41;5050623;28;20421;-61
2022/09/02 10:00:15;;;;;;;2.90;0.95;;;;;;;24.14;39.47;99970.00;5050308;28;20421;-64
2022/09/02 10:02:51;;;;;;;2.85;1.10;;;;;;;24.22;39.61;99965.63;5050442;28;20053;-61
2022/09/02 10:05:38;;;;;;;3.17;1.15;;;;;;;24.32;39.62;99967.09;5049135;28;20060;-61
2022/09/02 10:08:22;;;;;;;1.15;0.98;;;;;;;24.45;39.02;99969.22;5049138;28;20055;-62
2022/09/02 10:10:57;;;;;;;1.63;0.95;;;;;;;24.57;38.82;99968.88;5049138;28;20053;-60
2022/09/02 10:13:28;;;;;;;1.55;0.90;;;;;;;24.69;39.08;99964.78;5050355;28;20060;-62
2022/09/02 10:16:24;;;;;;;1.25;1.10;;;;;;;24.79;39.91;99961.88;5050166;28;20060;-62
2022/09/02 10:19:01;;;;;;;1.05;0.95;;;;;;;24.95;39.49;99954.75;5049903;28;20088;-62
2022/09/02 10:21:58;;;;;;;1.58;1.05;;;;;;;25.06;39.81;99954.34;5050252;28;20069;-62
2022/09/02 10:24:51;;;;;;;1.77;1.00;;;;;;;25.23;38.55;99943.47;5032549;28;20401;-61
2022/09/02 10:27:31;;;;;;;2.85;1.05;;;;;;;25.38;38.05;99944.34;5049990;28;20405;-61
2022/09/02 10:30:01;;;;;;;1.30;0.80;;;;;;;25.50;38.92;99943.94;5048882;28;20045;-63
2022/09/02 10:33:03;;;;;;;3.10;0.98;;;;;;;25.58;38.47;99937.66;5048829;28;20064;-63
2022/09/02 10:35:41;;;;;;;1.98;0.85;;;;;;;25.71;37.64;99943.25;5049878;28;20505;-62
2022/09/02 10:38:39;;;;;;;2.35;0.70;;;;;;;25.82;37.75;99946.56;5049999;28;20057;-63
2022/09/02 10:41:30;;;;;;;1.75;1.10;;;;;;;25.97;36.74;99938.44;5048624;28;20064;-61
2022/09/02 10:44:22;;;;;;;1.13;0.90;;;;;;;26.05;37.99;99938.38;5048620;28;20092;-62
2022/09/02 10:47:09;;;;;;;2.77;1.00;;;;;;;26.19;37.39;99931.31;5049968;28;20052;-61
2022/09/02 10:49:50;;;;;;;2.40;1.15;;;;;;;26.32;36.89;99932.53;5049741;28;20049;-62
2022/09/02 10:52:37;;;;;;;1.50;1.10;;;;;;;26.44;36.75;99927.50;5049741;28;20497;-62
2022/09/02 10:55:14;;;;;;;2.22;0.80;;;;;;;26.57;36.41;99924.16;5051864;28;20127;-62
2022/09/02 10:58:06;;;;;;;2.80;1.13;;;;;;;26.71;36.58;99922.41;5053479;28;20056;-62
2022/09/02 11:00:36;;;;;;;2.08;1.00;;;;;;;26.92;37.17;99927.03;5053306;28;20489;-63
2022/09/02 11:03:28;;;;;;;1.10;0.90;;;;;;;27.13;36.38;99920.81;5051997;28;20111;-62
2022/09/02 11:06:19;;;;;;;2.00;0.90;;;;;;;27.50;36.24;99925.31;5052120;28;20052;-61
2022/09/02 11:08:53;;;;;;;1.88;0.95;;;;;;;27.95;35.71;99923.19;5053113;28;20053;-61
2022/09/02 11:11:38;;;;;;;2.35;0.85;;;;;;;28.52;36.31;99916.00;5052030;28;20457;-61
2022/09/02 11:14:31;;;;;;;1.20;0.85;;;;;;;29.23;35.04;99911.19;5052111;28;20056;-61
2022/09/02 11:17:08;;;;;;;1.83;0.77;;;;;;;29.97;34.44;99902.19;5053061;28;20057;-61
2022/09/02 11:20:15;;;;;;;3.38;0.93;;;;;;;30.73;34.01;99893.56;5052820;28;20810;-60
2022/09/02 11:22:48;;;;;;;0.90;0.82;;;;;;;31.47;32.78;99901.22;5028179;28;20041;-61
2022/09/02 11:25:31;;;;;;;2.20;0.90;;;;;;;32.07;31.04;99898.97;5051881;28;20053;-62
2022/09/02 11:28:06;;;;;;;2.45;0.85;;;;;;;32.63;29.96;99894.31;5053061;28;20045;-61
2022/09/02 11:30:44;;;;;;;1.42;1.02;;;;;;;33.11;29.11;99889.00;5052851;28;20051;-62
2022/09/02 11:33:17;;;;;;;4.63;1.30;;;;;;;33.51;27.93;99887.50;5051707;28;20718;-61
2022/09/02 11:35:44;;;;;;;2.95;0.80;;;;;;;33.87;28.29;99883.94;5052831;28;20049;-61
2022/09/02 11:38:33;;;;;;;1.35;0.88;;;;;;;34.16;28.51;99884.84;5052416;28;20049;-61
2022/09/02 11:41:25;;;;;;;2.88;1.00;;;;;;;34.55;28.89;99888.88;5052478;28;20511;-63
2022/09/02 11:44:18;;;;;;;3.55;1.10;;;;;;;35.00;27.50;99878.22;5052610;28;20093;-61
2022/09/02 11:47:10;;;;;;;2.67;0.93;;;;;;;35.42;26.91;99875.06;5052918;28;20056;-61
2022/09/02 11:49:51;;;;;;;1.23;0.88;;;;;;;35.83;25.93;99874.84;5050413;28;20053;-61
2022/09/02 11:52:37;;;;;;;1.17;0.80;;;;;;;36.20;25.88;99869.84;5052512;28;20132;-61
2022/09/02 11:55:36;;;;;;;1.30;0.73;;;;;;;36.54;26.68;99868.84;5051185;28;20477;-62